sensor_id;sensor_type;location;lat;lon;timestamp;temperature;humidity
14357;DHT22;7262;48.764;9.166;2023-04-16T01:03:06;7.80;99.90
14357;DHT22;7262;48.764;9.166;2023-04-16T01:05:34;7.80;99.90
14357;DHT22;7262;48.764;9.166;2023-04-16T01:08:01;7.80;99.90
14357;DHT22;7262;48.764;9.166;2023-04-16T01:10:27;7.80;99.90
14357;DHT22;7262;48.764;9.166;2023-04-16T01:12:55;7.80;99.90
14357;DHT22;7262;48.764;9.166;2023-04-16T01:15:21;7.80;99.90
14357;DHT22;7262;48.764;9.166;2023-04-16T01:17:48;7.80;99.90
14357;DHT22;7262;48.764;9.166;2023-04-16T01:20:16;7.90;99.90
14357;DHT22;7262;48.764;9.166;2023-04-16T01:22:45;7.80;99.90
14357;DHT22;7262;48.764;9.166;2023-04-16T01:25:12;7.80;99.90
14357;DHT22;7262;48.764;9.166;2023-04-16T01:27:42;7.90;99.90
14357;DHT22;7262;48.764;9.166;2023-04-16T01:30:09;7.80;99.90
14357;DHT22;7262;48.764;9.166;2023-04-16T01:32:36;7.80;99.90
14357;DHT22;7262;48.764;9.166;2023-04-16T01:35:03;7.80;99.90
14357;DHT22;7262;48.764;9.166;2023-04-16T01:37:29;7.80;99.90
14357;DHT22;7262;48.764;9.166;2023-04-16T01:39:58;7.80;99.90
14357;DHT22;7262;48.764;9.166;2023-04-16T01:42:25;7.80;99.90
14357;DHT22;7262;48.764;9.166;2023-04-16T01:44:52;7.80;99.90
14357;DHT22;7262;48.764;9.166;2023-04-16T01:47:19;7.80;99.90
14357;DHT22;7262;48.764;9.166;2023-04-16T01:49:46;7.80;99.90
14357;DHT22;7262;48.764;9.166;2023-04-16T01:52:13;7.80;99.90
14357;DHT22;7262;48.764;9.166;2023-04-16T01:54:40;7.80;99.90
14357;DHT22;7262;48.764;9.166;2023-04-16T01:57:09;7.80;99.90
14357;DHT22;7262;48.764;9.166;2023-04-16T01:59:36;7.80;99.90
14357;DHT22;7262;48.764;9.166;2023-04-16T02:02:06;7.80;99.90
14357;DHT22;7262;48.764;9.166;2023-04-16T02:04:35;7.80;99.90
14357;DHT22;7262;48.764;9.166;2023-04-16T02:07:02;7.80;99.90
14357;DHT22;7262;48.764;9.166;2023-04-16T02:09:29;7.80;99.90
14357;DHT22;7262;48.764;9.166;2023-04-16T02:11:56;7.80;99.90
14357;DHT22;7262;48.764;9.166;2023-04-16T02:14:24;7.80;99.90
14357;DHT22;7262;48.764;9.166;2023-04-16T02:16:51;7.80;99.90
14357;DHT22;7262;48.764;9.166;2023-04-16T02:19:17;7.80;99.90
14357;DHT22;7262;48.764;9.166;2023-04-16T02:21:44;7.80;99.90
14357;DHT22;7262;48.764;9.166;2023-04-16T02:24:11;7.80;99.90
14357;DHT22;7262;48.764;9.166;2023-04-16T02:26:37;7.80;99.90
14357;DHT22;7262;48.764;9.166;2023-04-16T02:29:05;7.80;99.90
14357;DHT22;7262;48.764;9.166;2023-04-16T02:31:33;7.80;99.90
14357;DHT22;7262;48.764;9.166;2023-04-16T02:34:00;7.80;99.90
14357;DHT22;7262;48.764;9.166;2023-04-16T02:36:26;7.70;99.90
14357;DHT22;7262;48.764;9.166;2023-04-16T02:38:53;7.70;99.90
14357;DHT22;7262;48.764;9.166;2023-04-16T02:41:20;7.70;99.90
14357;DHT22;7262;48.764;9.166;2023-04-16T02:43:47;7.70;99.90
14357;DHT22;7262;48.764;9.166;2023-04-16T02:46:13;7.80;99.90
14357;DHT22;7262;48.764;9.166;2023-04-16T02:48:42;7.70;99.90
14357;DHT22;7262;48.764;9.166;2023-04-16T02:51:09;7.80;99.90
14357;DHT22;7262;48.764;9.166;2023-04-16T02:53:35;7.70;99.90
14357;DHT22;7262;48.764;9.166;2023-04-16T02:56:02;7.70;99.90
14357;DHT22;7262;48.764;9.166;2023-04-16T02:58:29;7.80;99.90
14357;DHT22;7262;48.764;9.166;2023-04-16T03:00:56;7.70;99.90
14357;DHT22;7262;48.764;9.166;2023-04-16T03:03:23;7.70;99.90
14357;DHT22;7262;48.764;9.166;2023-04-16T03:05:51;7.70;99.90
14357;DHT22;7262;48.764;9.166;2023-04-16T03:08:18;7.80;99.90
14357;DHT22;7262;48.764;9.166;2023-04-16T03:10:45;7.80;99.90
14357;DHT22;7262;48.764;9.166;2023-04-16T03:13:11;7.70;99.90
14357;DHT22;7262;48.764;9.166;2023-04-16T03:15:38;7.70;99.90
14357;DHT22;7262;48.764;9.166;2023-04-16T03:18:05;7.70;99.90
14357;DHT22;7262;48.764;9.166;2023-04-16T03:20:32;7.70;99.90
14357;DHT22;7262;48.764;9.166;2023-04-16T03:23:00;7.70;99.90
14357;DHT22;7262;48.764;9.166;2023-04-16T03:25:26;7.70;99.90
14357;DHT22;7262;48.764;9.166;2023-04-16T03:27:53;7.80;99.90
14357;DHT22;7262;48.764;9.166;2023-04-16T03:30:20;7.80;99.90
14357;DHT22;7262;48.764;9.166;2023-04-16T03:32:46;7.80;99.90
14357;DHT22;7262;48.764;9.166;2023-04-16T03:35:13;7.80;99.90
14357;DHT22;7262;48.764;9.166;2023-04-16T03:37:40;7.70;99.90
14357;DHT22;7262;48.764;9.166;2023-04-16T03:40:09;7.70;99.90
14357;DHT22;7262;48.764;9.166;2023-04-16T03:42:35;7.70;99.90
14357;DHT22;7262;48.764;9.166;2023-04-16T03:45:05;7.70;99.90
14357;DHT22;7262;48.764;9.166;2023-04-16T03:47:33;7.60;99.90
14357;DHT22;7262;48.764;9.166;2023-04-16T03:50:00;7.60;99.90
14357;DHT22;7262;48.764;9.166;2023-04-16T03:52:27;7.70;99.90
14357;DHT22;7262;48.764;9.166;2023-04-16T03:54:54;7.70;99.90
14357;DHT22;7262;48.764;9.166;2023-04-16T03:57:22;7.70;99.90
14357;DHT22;7262;48.764;9.166;2023-04-16T03:59:49;7.70;99.90
14357;DHT22;7262;48.764;9.166;2023-04-16T04:02:15;7.70;99.90
14357;DHT22;7262;48.764;9.166;2023-04-16T04:04:42;7.70;99.90
14357;DHT22;7262;48.764;9.166;2023-04-16T04:07:09;7.70;99.90
14357;DHT22;7262;48.764;9.166;2023-04-16T04:09:36;7.70;99.90
14357;DHT22;7262;48.764;9.166;2023-04-16T04:12:03;7.70;99.90
14357;DHT22;7262;48.764;9.166;2023-04-16T04:14:31;7.60;99.90
14357;DHT22;7262;48.764;9.166;2023-04-16T04:17:03;7.70;99.90
14357;DHT22;7262;48.764;9.166;2023-04-16T04:19:30;7.70;99.90
14357;DHT22;7262;48.764;9.166;2023-04-16T04:21:57;7.60;99.90
14357;DHT22;7262;48.764;9.166;2023-04-16T04:24:24;7.70;99.90
14357;DHT22;7262;48.764;9.166;2023-04-16T04:26:51;7.70;99.90
14357;DHT22;7262;48.764;9.166;2023-04-16T04:29:18;7.60;99.90
14357;DHT22;7262;48.764;9.166;2023-04-16T04:31:46;7.60;99.90
14357;DHT22;7262;48.764;9.166;2023-04-16T04:34:13;7.60;99.90
14357;DHT22;7262;48.764;9.166;2023-04-16T04:36:39;7.60;99.90
14357;DHT22;7262;48.764;9.166;2023-04-16T04:39:06;7.70;99.90
14357;DHT22;7262;48.764;9.166;2023-04-16T04:41:33;7.60;99.90
14357;DHT22;7262;48.764;9.166;2023-04-16T04:44:00;7.60;99.90
14357;DHT22;7262;48.764;9.166;2023-04-16T04:46:27;7.60;99.90
14357;DHT22;7262;48.764;9.166;2023-04-16T04:48:55;7.60;99.90
14357;DHT22;7262;48.764;9.166;2023-04-16T04:51:22;7.60;99.90
14357;DHT22;7262;48.764;9.166;2023-04-16T04:53:48;7.60;99.90
14357;DHT22;7262;48.764;9.166;2023-04-16T04:56:15;7.60;99.90
14357;DHT22;7262;48.764;9.166;2023-04-16T04:58:42;7.60;99.90
14357;DHT22;7262;48.764;9.166;2023-04-16T05:01:09;7.60;99.90
14357;DHT22;7262;48.764;9.166;2023-04-16T05:03:36;7.60;99.90
14357;DHT22;7262;48.764;9.166;2023-04-16T05:06:04;7.60;99.90
14357;DHT22;7262;48.764;9.166;2023-04-16T05:08:30;7.60;99.90
14357;DHT22;7262;48.764;9.166;2023-04-16T05:10:57;7.60;99.90
14357;DHT22;7262;48.764;9.166;2023-04-16T05:13:24;7.60;99.90
14357;DHT22;7262;48.764;9.166;2023-04-16T05:15:50;7.60;99.90
14357;DHT22;7262;48.764;9.166;2023-04-16T05:18:17;7.70;99.90
14357;DHT22;7262;48.764;9.166;2023-04-16T05:20:44;7.60;99.90
14357;DHT22;7262;48.764;9.166;2023-04-16T05:23:12;7.60;99.90
14357;DHT22;7262;48.764;9.166;2023-04-16T05:25:40;7.60;99.90
14357;DHT22;7262;48.764;9.166;2023-04-16T05:28:06;7.60;99.90
14357;DHT22;7262;48.764;9.166;2023-04-16T05:30:33;7.60;99.90
14357;DHT22;7262;48.764;9.166;2023-04-16T05:33:00;7.60;99.90
14357;DHT22;7262;48.764;9.166;2023-04-16T05:35:26;7.70;99.90
14357;DHT22;7262;48.764;9.166;2023-04-16T05:37:53;7.60;99.90
14357;DHT22;7262;48.764;9.166;2023-04-16T05:40:21;7.50;99.90
14357;DHT22;7262;48.764;9.166;2023-04-16T05:42:48;7.60;99.90
14357;DHT22;7262;48.764;9.166;2023-04-16T05:45:14;7.70;99.90
14357;DHT22;7262;48.764;9.166;2023-04-16T05:47:41;7.60;99.90
14357;DHT22;7262;48.764;9.166;2023-04-16T05:50:08;7.60;99.90
14357;DHT22;7262;48.764;9.166;2023-04-16T05:52:35;7.50;99.90
14357;DHT22;7262;48.764;9.166;2023-04-16T05:55:02;7.60;99.90
14357;DHT22;7262;48.764;9.166;2023-04-16T05:57:31;7.60;99.90
14357;DHT22;7262;48.764;9.166;2023-04-16T05:59:58;7.50;99.90
14357;DHT22;7262;48.764;9.166;2023-04-16T06:02:25;7.60;99.90
14357;DHT22;7262;48.764;9.166;2023-04-16T06:04:51;7.60;99.90
14357;DHT22;7262;48.764;9.166;2023-04-16T06:07:19;7.60;99.90
14357;DHT22;7262;48.764;9.166;2023-04-16T06:09:46;7.60;99.90
14357;DHT22;7262;48.764;9.166;2023-04-16T06:12:12;7.60;99.90
14357;DHT22;7262;48.764;9.166;2023-04-16T06:14:41;7.60;99.90
14357;DHT22;7262;48.764;9.166;2023-04-16T06:17:07;7.60;99.90
14357;DHT22;7262;48.764;9.166;2023-04-16T06:19:34;7.60;99.90
14357;DHT22;7262;48.764;9.166;2023-04-16T06:22:01;7.70;99.90
14357;DHT22;7262;48.764;9.166;2023-04-16T06:24:29;7.60;99.90
14357;DHT22;7262;48.764;9.166;2023-04-16T06:26:56;7.60;99.90
14357;DHT22;7262;48.764;9.166;2023-04-16T06:29:23;7.60;99.90
14357;DHT22;7262;48.764;9.166;2023-04-16T06:31:52;7.60;99.90
14357;DHT22;7262;48.764;9.166;2023-04-16T06:34:19;7.60;99.90
14357;DHT22;7262;48.764;9.166;2023-04-16T06:36:46;7.70;99.90
14357;DHT22;7262;48.764;9.166;2023-04-16T06:39:15;7.70;99.90
14357;DHT22;7262;48.764;9.166;2023-04-16T06:41:46;7.70;99.90
14357;DHT22;7262;48.764;9.166;2023-04-16T06:44:13;7.70;99.90
14357;DHT22;7262;48.764;9.166;2023-04-16T06:46:40;7.60;99.90
14357;DHT22;7262;48.764;9.166;2023-04-16T06:49:08;7.70;99.90
14357;DHT22;7262;48.764;9.166;2023-04-16T06:51:34;7.70;99.90
14357;DHT22;7262;48.764;9.166;2023-04-16T06:54:01;7.70;99.90
14357;DHT22;7262;48.764;9.166;2023-04-16T06:56:28;7.70;99.90
14357;DHT22;7262;48.764;9.166;2023-04-16T06:58:55;7.70;99.90
14357;DHT22;7262;48.764;9.166;2023-04-16T07:01:23;7.70;99.90
14357;DHT22;7262;48.764;9.166;2023-04-16T07:03:50;7.80;99.90
14357;DHT22;7262;48.764;9.166;2023-04-16T07:06:18;7.80;99.90
14357;DHT22;7262;48.764;9.166;2023-04-16T07:08:45;7.80;99.90
14357;DHT22;7262;48.764;9.166;2023-04-16T07:11:12;7.70;99.90
14357;DHT22;7262;48.764;9.166;2023-04-16T07:13:39;7.90;99.90
14357;DHT22;7262;48.764;9.166;2023-04-16T07:16:05;7.70;99.90
14357;DHT22;7262;48.764;9.166;2023-04-16T07:18:32;7.80;99.90
14357;DHT22;7262;48.764;9.166;2023-04-16T07:20:59;7.80;99.90
14357;DHT22;7262;48.764;9.166;2023-04-16T07:23:27;7.90;99.90
14357;DHT22;7262;48.764;9.166;2023-04-16T07:25:54;7.80;99.90
14357;DHT22;7262;48.764;9.166;2023-04-16T07:28:20;7.90;99.90
14357;DHT22;7262;48.764;9.166;2023-04-16T07:30:49;7.90;99.90
14357;DHT22;7262;48.764;9.166;2023-04-16T07:33:16;8.00;99.90
14357;DHT22;7262;48.764;9.166;2023-04-16T07:35:44;8.00;99.90
14357;DHT22;7262;48.764;9.166;2023-04-16T07:38:11;8.00;99.90
14357;DHT22;7262;48.764;9.166;2023-04-16T07:40:40;8.00;99.90
14357;DHT22;7262;48.764;9.166;2023-04-16T07:43:07;7.90;99.90
14357;DHT22;7262;48.764;9.166;2023-04-16T07:45:34;8.00;99.90
14357;DHT22;7262;48.764;9.166;2023-04-16T07:48:01;8.00;99.90
14357;DHT22;7262;48.764;9.166;2023-04-16T07:50:28;8.10;99.90
14357;DHT22;7262;48.764;9.166;2023-04-16T07:52:55;8.10;99.90
14357;DHT22;7262;48.764;9.166;2023-04-16T07:55:21;7.90;99.90
14357;DHT22;7262;48.764;9.166;2023-04-16T07:57:49;8.10;99.90
14357;DHT22;7262;48.764;9.166;2023-04-16T08:00:16;8.10;99.90
14357;DHT22;7262;48.764;9.166;2023-04-16T08:02:43;8.10;99.90
14357;DHT22;7262;48.764;9.166;2023-04-16T08:05:10;8.10;99.90
14357;DHT22;7262;48.764;9.166;2023-04-16T08:07:37;8.00;99.90
14357;DHT22;7262;48.764;9.166;2023-04-16T08:10:04;8.10;99.90
14357;DHT22;7262;48.764;9.166;2023-04-16T08:12:31;8.20;99.90
14357;DHT22;7262;48.764;9.166;2023-04-16T08:14:59;8.20;99.90
14357;DHT22;7262;48.764;9.166;2023-04-16T08:17:26;8.20;99.90
14357;DHT22;7262;48.764;9.166;2023-04-16T08:19:53;8.20;99.90
14357;DHT22;7262;48.764;9.166;2023-04-16T08:22:20;8.20;99.90
14357;DHT22;7262;48.764;9.166;2023-04-16T08:24:48;8.20;99.90
14357;DHT22;7262;48.764;9.166;2023-04-16T08:27:15;8.10;99.90
14357;DHT22;7262;48.764;9.166;2023-04-16T08:29:41;8.10;99.90
14357;DHT22;7262;48.764;9.166;2023-04-16T08:32:10;8.00;99.90
14357;DHT22;7262;48.764;9.166;2023-04-16T08:34:36;8.00;99.90
14357;DHT22;7262;48.764;9.166;2023-04-16T08:37:03;8.10;99.90
14357;DHT22;7262;48.764;9.166;2023-04-16T08:39:31;8.00;99.90
14357;DHT22;7262;48.764;9.166;2023-04-16T08:41:58;8.00;99.90
14357;DHT22;7262;48.764;9.166;2023-04-16T08:44:29;8.10;99.90
14357;DHT22;7262;48.764;9.166;2023-04-16T08:46:57;8.10;99.90
14357;DHT22;7262;48.764;9.166;2023-04-16T08:49:26;8.20;99.90
14357;DHT22;7262;48.764;9.166;2023-04-16T08:51:53;8.20;99.90
14357;DHT22;7262;48.764;9.166;2023-04-16T08:54:24;8.20;99.90
14357;DHT22;7262;48.764;9.166;2023-04-16T08:56:53;8.20;99.90
14357;DHT22;7262;48.764;9.166;2023-04-16T08:59:23;8.20;99.90
14357;DHT22;7262;48.764;9.166;2023-04-16T09:01:50;8.20;99.90
14357;DHT22;7262;48.764;9.166;2023-04-16T09:04:18;8.20;99.90
14357;DHT22;7262;48.764;9.166;2023-04-16T09:06:46;8.30;99.90
14357;DHT22;7262;48.764;9.166;2023-04-16T09:09:14;8.40;99.90
14357;DHT22;7262;48.764;9.166;2023-04-16T09:11:41;8.30;99.90
14357;DHT22;7262;48.764;9.166;2023-04-16T09:14:09;8.40;99.90
14357;DHT22;7262;48.764;9.166;2023-04-16T09:16:37;8.40;99.90
14357;DHT22;7262;48.764;9.166;2023-04-16T09:19:05;8.50;99.90
14357;DHT22;7262;48.764;9.166;2023-04-16T09:21:33;8.60;99.90
14357;DHT22;7262;48.764;9.166;2023-04-16T09:24:01;8.70;99.90
14357;DHT22;7262;48.764;9.166;2023-04-16T09:26:29;8.70;99.90
14357;DHT22;7262;48.764;9.166;2023-04-16T09:28:56;8.80;99.90
14357;DHT22;7262;48.764;9.166;2023-04-16T09:31:22;8.80;99.90
14357;DHT22;7262;48.764;9.166;2023-04-16T09:34:01;8.80;99.90
14357;DHT22;7262;48.764;9.166;2023-04-16T09:36:42;8.70;99.90
14357;DHT22;7262;48.764;9.166;2023-04-16T09:39:10;8.70;99.90
14357;DHT22;7262;48.764;9.166;2023-04-16T09:41:43;8.80;99.90
14357;DHT22;7262;48.764;9.166;2023-04-16T09:44:12;8.80;99.90
14357;DHT22;7262;48.764;9.166;2023-04-16T09:46:39;8.90;99.90
14357;DHT22;7262;48.764;9.166;2023-04-16T09:49:07;8.90;99.90
14357;DHT22;7262;48.764;9.166;2023-04-16T09:51:39;9.00;99.90
14357;DHT22;7262;48.764;9.166;2023-04-16T09:54:06;9.00;99.90
14357;DHT22;7262;48.764;9.166;2023-04-16T09:56:45;8.90;99.90
14357;DHT22;7262;48.764;9.166;2023-04-16T09:59:15;9.00;99.90
14357;DHT22;7262;48.764;9.166;2023-04-16T10:01:42;8.90;99.90
14357;DHT22;7262;48.764;9.166;2023-04-16T10:04:10;8.90;99.90
14357;DHT22;7262;48.764;9.166;2023-04-16T10:06:37;8.90;99.90
14357;DHT22;7262;48.764;9.166;2023-04-16T10:09:05;8.90;99.90
14357;DHT22;7262;48.764;9.166;2023-04-16T10:11:35;8.90;99.90
14357;DHT22;7262;48.764;9.166;2023-04-16T10:14:06;8.90;99.90
14357;DHT22;7262;48.764;9.166;2023-04-16T10:16:33;8.80;99.90
14357;DHT22;7262;48.764;9.166;2023-04-16T10:19:00;8.90;99.90
14357;DHT22;7262;48.764;9.166;2023-04-16T10:21:27;8.90;99.90
14357;DHT22;7262;48.764;9.166;2023-04-16T10:23:58;8.90;99.90
14357;DHT22;7262;48.764;9.166;2023-04-16T10:29:01;9.10;99.90
14357;DHT22;7262;48.764;9.166;2023-04-16T10:31:31;9.00;99.90
14357;DHT22;7262;48.764;9.166;2023-04-16T10:33:58;9.10;99.90
14357;DHT22;7262;48.764;9.166;2023-04-16T10:36:26;9.20;99.90
14357;DHT22;7262;48.764;9.166;2023-04-16T10:38:56;9.30;99.90
14357;DHT22;7262;48.764;9.166;2023-04-16T10:41:24;9.50;99.90
14357;DHT22;7262;48.764;9.166;2023-04-16T10:43:51;9.60;99.90
14357;DHT22;7262;48.764;9.166;2023-04-16T10:46:18;9.70;99.90
14357;DHT22;7262;48.764;9.166;2023-04-16T10:48:47;9.50;99.90
14357;DHT22;7262;48.764;9.166;2023-04-16T10:51:22;9.50;99.90
14357;DHT22;7262;48.764;9.166;2023-04-16T10:53:53;9.50;99.90
14357;DHT22;7262;48.764;9.166;2023-04-16T10:56:22;9.40;99.90
14357;DHT22;7262;48.764;9.166;2023-04-16T10:58:52;9.30;99.90
14357;DHT22;7262;48.764;9.166;2023-04-16T11:01:27;9.30;99.90
14357;DHT22;7262;48.764;9.166;2023-04-16T11:03:56;9.30;99.90
14357;DHT22;7262;48.764;9.166;2023-04-16T11:06:24;9.40;99.90
14357;DHT22;7262;48.764;9.166;2023-04-16T11:08:52;9.40;99.90
14357;DHT22;7262;48.764;9.166;2023-04-16T11:11:18;9.40;99.90
14357;DHT22;7262;48.764;9.166;2023-04-16T11:13:45;9.30;99.90
14357;DHT22;7262;48.764;9.166;2023-04-16T11:18:44;9.50;99.90
14357;DHT22;7262;48.764;9.166;2023-04-16T11:21:12;9.50;99.90
14357;DHT22;7262;48.764;9.166;2023-04-16T11:23:48;9.60;99.90
14357;DHT22;7262;48.764;9.166;2023-04-16T11:26:19;9.40;99.90
14357;DHT22;7262;48.764;9.166;2023-04-16T11:28:47;9.40;99.90
14357;DHT22;7262;48.764;9.166;2023-04-16T11:33:43;9.30;99.90
14357;DHT22;7262;48.764;9.166;2023-04-16T11:36:12;9.20;99.90
14357;DHT22;7262;48.764;9.166;2023-04-16T11:38:40;9.30;99.90
14357;DHT22;7262;48.764;9.166;2023-04-16T11:41:08;9.30;99.90
14357;DHT22;7262;48.764;9.166;2023-04-16T11:43:35;9.40;99.90
14357;DHT22;7262;48.764;9.166;2023-04-16T11:46:03;9.30;99.90
14357;DHT22;7262;48.764;9.166;2023-04-16T11:51:14;9.30;99.90
14357;DHT22;7262;48.764;9.166;2023-04-16T11:53:48;9.30;99.90
14357;DHT22;7262;48.764;9.166;2023-04-16T11:59:04;9.40;99.90
14357;DHT22;7262;48.764;9.166;2023-04-16T12:01:31;9.40;99.90
14357;DHT22;7262;48.764;9.166;2023-04-16T12:03:59;9.50;99.90
14357;DHT22;7262;48.764;9.166;2023-04-16T12:06:28;9.40;99.90
14357;DHT22;7262;48.764;9.166;2023-04-16T12:08:56;9.30;99.90
14357;DHT22;7262;48.764;9.166;2023-04-16T12:14:08;9.30;99.90
14357;DHT22;7262;48.764;9.166;2023-04-16T12:16:36;9.30;99.90
14357;DHT22;7262;48.764;9.166;2023-04-16T12:19:03;9.30;99.90
14357;DHT22;7262;48.764;9.166;2023-04-16T12:21:42;9.30;99.90
14357;DHT22;7262;48.764;9.166;2023-04-16T12:24:11;9.30;99.90
14357;DHT22;7262;48.764;9.166;2023-04-16T12:26:39;9.20;99.90
14357;DHT22;7262;48.764;9.166;2023-04-16T12:29:13;9.20;99.90
14357;DHT22;7262;48.764;9.166;2023-04-16T12:31:41;9.20;99.90
14357;DHT22;7262;48.764;9.166;2023-04-16T12:34:10;9.20;99.90
14357;DHT22;7262;48.764;9.166;2023-04-16T12:36:38;9.20;99.90
14357;DHT22;7262;48.764;9.166;2023-04-16T12:39:06;9.10;99.90
14357;DHT22;7262;48.764;9.166;2023-04-16T12:41:35;9.20;99.90
14357;DHT22;7262;48.764;9.166;2023-04-16T12:44:02;9.10;99.90
14357;DHT22;7262;48.764;9.166;2023-04-16T12:46:31;9.10;99.90
14357;DHT22;7262;48.764;9.166;2023-04-16T12:48:59;9.10;99.90
14357;DHT22;7262;48.764;9.166;2023-04-16T12:51:25;9.00;99.90
14357;DHT22;7262;48.764;9.166;2023-04-16T12:53:53;9.00;99.90
14357;DHT22;7262;48.764;9.166;2023-04-16T12:56:21;9.00;99.90
14357;DHT22;7262;48.764;9.166;2023-04-16T12:58:48;9.00;99.90
14357;DHT22;7262;48.764;9.166;2023-04-16T13:01:16;9.10;99.90
14357;DHT22;7262;48.764;9.166;2023-04-16T13:03:42;9.20;99.90
14357;DHT22;7262;48.764;9.166;2023-04-16T13:06:09;9.10;99.90
14357;DHT22;7262;48.764;9.166;2023-04-16T13:08:36;9.10;99.90
14357;DHT22;7262;48.764;9.166;2023-04-16T13:11:03;9.10;99.90
14357;DHT22;7262;48.764;9.166;2023-04-16T13:13:33;9.00;99.90
14357;DHT22;7262;48.764;9.166;2023-04-16T13:16:00;9.10;99.90
14357;DHT22;7262;48.764;9.166;2023-04-16T13:18:31;9.10;99.90
14357;DHT22;7262;48.764;9.166;2023-04-16T13:21:00;9.10;99.90
14357;DHT22;7262;48.764;9.166;2023-04-16T13:23:27;9.10;99.90
14357;DHT22;7262;48.764;9.166;2023-04-16T13:25:55;9.10;99.90
14357;DHT22;7262;48.764;9.166;2023-04-16T13:28:25;9.10;99.90
14357;DHT22;7262;48.764;9.166;2023-04-16T13:30:53;9.20;99.90
14357;DHT22;7262;48.764;9.166;2023-04-16T13:33:20;9.10;99.90
14357;DHT22;7262;48.764;9.166;2023-04-16T13:36:01;9.20;99.90
14357;DHT22;7262;48.764;9.166;2023-04-16T13:38:27;9.20;99.90
14357;DHT22;7262;48.764;9.166;2023-04-16T13:40:55;9.20;99.90
14357;DHT22;7262;48.764;9.166;2023-04-16T13:43:25;9.10;99.90
14357;DHT22;7262;48.764;9.166;2023-04-16T13:45:55;9.10;99.90
14357;DHT22;7262;48.764;9.166;2023-04-16T13:48:22;9.10;99.90
14357;DHT22;7262;48.764;9.166;2023-04-16T13:50:49;9.10;99.90
14357;DHT22;7262;48.764;9.166;2023-04-16T13:53:16;9.20;99.90
14357;DHT22;7262;48.764;9.166;2023-04-16T13:55:43;9.10;99.90
14357;DHT22;7262;48.764;9.166;2023-04-16T13:58:12;9.00;99.90
14357;DHT22;7262;48.764;9.166;2023-04-16T14:00:45;9.10;99.90
14357;DHT22;7262;48.764;9.166;2023-04-16T14:03:17;9.00;99.90
14357;DHT22;7262;48.764;9.166;2023-04-16T14:05:44;9.10;99.90
14357;DHT22;7262;48.764;9.166;2023-04-16T14:08:14;9.10;99.90
14357;DHT22;7262;48.764;9.166;2023-04-16T14:10:41;9.10;99.90
14357;DHT22;7262;48.764;9.166;2023-04-16T14:13:13;9.10;99.90
14357;DHT22;7262;48.764;9.166;2023-04-16T14:15:40;9.10;99.90
14357;DHT22;7262;48.764;9.166;2023-04-16T14:18:08;9.10;99.90
14357;DHT22;7262;48.764;9.166;2023-04-16T14:20:37;9.10;99.90
14357;DHT22;7262;48.764;9.166;2023-04-16T14:23:04;9.10;99.90
14357;DHT22;7262;48.764;9.166;2023-04-16T14:25:31;9.10;99.90
14357;DHT22;7262;48.764;9.166;2023-04-16T14:27:57;9.10;99.90
14357;DHT22;7262;48.764;9.166;2023-04-16T14:30:24;9.20;99.90
14357;DHT22;7262;48.764;9.166;2023-04-16T14:32:51;9.10;99.90
14357;DHT22;7262;48.764;9.166;2023-04-16T14:35:18;9.10;99.90
14357;DHT22;7262;48.764;9.166;2023-04-16T14:37:46;9.10;99.90
14357;DHT22;7262;48.764;9.166;2023-04-16T14:40:15;9.10;99.90
14357;DHT22;7262;48.764;9.166;2023-04-16T14:42:42;9.10;99.90
14357;DHT22;7262;48.764;9.166;2023-04-16T14:45:08;9.10;99.90
14357;DHT22;7262;48.764;9.166;2023-04-16T14:47:35;9.00;99.90
14357;DHT22;7262;48.764;9.166;2023-04-16T14:50:07;9.00;99.90
14357;DHT22;7262;48.764;9.166;2023-04-16T14:52:34;9.00;99.90
14357;DHT22;7262;48.764;9.166;2023-04-16T14:55:03;9.00;99.90
14357;DHT22;7262;48.764;9.166;2023-04-16T14:57:31;9.00;99.90
14357;DHT22;7262;48.764;9.166;2023-04-16T14:59:57;9.00;99.90
14357;DHT22;7262;48.764;9.166;2023-04-16T15:02:25;8.90;99.90
14357;DHT22;7262;48.764;9.166;2023-04-16T15:04:52;8.90;99.90
14357;DHT22;7262;48.764;9.166;2023-04-16T15:07:20;8.90;99.90
14357;DHT22;7262;48.764;9.166;2023-04-16T15:09:47;9.00;99.90
14357;DHT22;7262;48.764;9.166;2023-04-16T15:12:15;9.00;99.90
14357;DHT22;7262;48.764;9.166;2023-04-16T15:14:41;9.00;99.90
14357;DHT22;7262;48.764;9.166;2023-04-16T15:17:08;9.00;99.90
14357;DHT22;7262;48.764;9.166;2023-04-16T15:19:35;9.00;99.90
14357;DHT22;7262;48.764;9.166;2023-04-16T15:22:03;9.00;99.90
14357;DHT22;7262;48.764;9.166;2023-04-16T15:24:29;9.10;99.90
14357;DHT22;7262;48.764;9.166;2023-04-16T15:26:56;9.20;99.90
14357;DHT22;7262;48.764;9.166;2023-04-16T15:29:27;9.00;99.90
14357;DHT22;7262;48.764;9.166;2023-04-16T15:31:56;9.20;99.90
14357;DHT22;7262;48.764;9.166;2023-04-16T15:34:25;9.10;99.90
14357;DHT22;7262;48.764;9.166;2023-04-16T15:36:52;9.00;99.90
14357;DHT22;7262;48.764;9.166;2023-04-16T15:39:18;9.00;99.90
14357;DHT22;7262;48.764;9.166;2023-04-16T15:41:46;9.10;99.90
14357;DHT22;7262;48.764;9.166;2023-04-16T15:44:12;9.10;99.90
14357;DHT22;7262;48.764;9.166;2023-04-16T15:46:40;9.00;99.90
14357;DHT22;7262;48.764;9.166;2023-04-16T15:49:07;9.10;99.90
14357;DHT22;7262;48.764;9.166;2023-04-16T15:51:34;8.90;99.90
14357;DHT22;7262;48.764;9.166;2023-04-16T15:54:00;9.00;99.90
14357;DHT22;7262;48.764;9.166;2023-04-16T15:56:27;9.00;99.90
14357;DHT22;7262;48.764;9.166;2023-04-16T15:58:54;9.00;99.90
14357;DHT22;7262;48.764;9.166;2023-04-16T16:01:21;9.00;99.90
14357;DHT22;7262;48.764;9.166;2023-04-16T16:03:50;9.00;99.90
14357;DHT22;7262;48.764;9.166;2023-04-16T16:06:19;9.00;99.90
14357;DHT22;7262;48.764;9.166;2023-04-16T16:08:46;9.00;99.90
14357;DHT22;7262;48.764;9.166;2023-04-16T16:11:14;9.00;99.90
14357;DHT22;7262;48.764;9.166;2023-04-16T16:13:41;9.00;99.90
14357;DHT22;7262;48.764;9.166;2023-04-16T16:16:09;8.90;99.90
14357;DHT22;7262;48.764;9.166;2023-04-16T16:18:36;9.00;99.90
14357;DHT22;7262;48.764;9.166;2023-04-16T16:21:04;9.10;99.90
14357;DHT22;7262;48.764;9.166;2023-04-16T16:23:32;9.00;99.90
14357;DHT22;7262;48.764;9.166;2023-04-16T16:25:59;9.00;99.90
14357;DHT22;7262;48.764;9.166;2023-04-16T16:28:25;9.00;99.90
14357;DHT22;7262;48.764;9.166;2023-04-16T16:30:53;9.00;99.90
14357;DHT22;7262;48.764;9.166;2023-04-16T16:33:23;9.00;99.90
14357;DHT22;7262;48.764;9.166;2023-04-16T16:49:23;9.00;99.90
14357;DHT22;7262;48.764;9.166;2023-04-16T16:51:49;9.00;99.90
14357;DHT22;7262;48.764;9.166;2023-04-16T16:56:51;9.00;99.90
14357;DHT22;7262;48.764;9.166;2023-04-16T16:59:19;9.00;99.90
14357;DHT22;7262;48.764;9.166;2023-04-16T18:35:42;9.00;99.90
14357;DHT22;7262;48.764;9.166;2023-04-16T18:57:14;9.00;99.90
14357;DHT22;7262;48.764;9.166;2023-04-16T18:59:41;9.10;99.90
14357;DHT22;7262;48.764;9.166;2023-04-16T19:22:52;9.00;99.90
14357;DHT22;7262;48.764;9.166;2023-04-16T19:30:30;8.90;99.90
14357;DHT22;7262;48.764;9.166;2023-04-16T19:33:00;9.10;99.90
14357;DHT22;7262;48.764;9.166;2023-04-16T19:38:03;9.10;99.90
14357;DHT22;7262;48.764;9.166;2023-04-16T19:43:05;9.10;99.90
14357;DHT22;7262;48.764;9.166;2023-04-16T20:03:42;9.00;99.90
14357;DHT22;7262;48.764;9.166;2023-04-16T20:50:12;9.10;99.90
14357;DHT22;7262;48.764;9.166;2023-04-16T21:13:23;9.10;99.90
14357;DHT22;7262;48.764;9.166;2023-04-16T21:15:51;9.10;99.90
14357;DHT22;7262;48.764;9.166;2023-04-16T21:39:50;9.10;99.90
14357;DHT22;7262;48.764;9.166;2023-04-16T21:42:17;9.10;99.90
14357;DHT22;7262;48.764;9.166;2023-04-16T21:44:44;9.10;99.90
14357;DHT22;7262;48.764;9.166;2023-04-16T21:47:11;9.10;99.90